createdAt,value
2023-01-11T00:06:48.806Z,63.92
2023-01-11T00:13:50.474Z,62.72
2023-01-11T00:20:52.123Z,63.24
2023-01-11T00:27:54.258Z,62.75
2023-01-11T00:34:55.901Z,63.30
2023-01-11T00:42:16.101Z,63.38
2023-01-11T00:49:17.694Z,63.80
2023-01-11T00:56:19.278Z,63.58
2023-01-11T01:03:20.993Z,63.82
2023-01-11T01:10:22.683Z,63.62
2023-01-11T01:17:24.293Z,63.33
2023-01-11T01:24:28.110Z,64.08
2023-01-11T01:31:29.749Z,64.56
2023-01-11T01:38:31.436Z,63.56
2023-01-11T01:45:33.053Z,63.68
2023-01-11T01:52:34.729Z,63.77
2023-01-11T01:59:36.344Z,63.11
2023-01-11T02:06:38.013Z,62.81
2023-01-11T02:13:45.976Z,62.40
2023-01-11T02:20:56.346Z,62.69
2023-01-11T02:28:36.953Z,62.39
2023-01-11T02:35:52.228Z,61.08
2023-01-11T02:43:26.765Z,60.41
2023-01-11T02:50:32.721Z,60.78
2023-01-11T02:57:34.298Z,60.71
2023-01-11T03:04:36.903Z,59.67
2023-01-11T03:12:19.220Z,59.78
2023-01-11T03:19:37.448Z,59.82
2023-01-11T03:26:48.062Z,58.87
2023-01-11T03:33:52.521Z,59.00
2023-01-11T03:41:05.530Z,58.79
2023-01-11T03:48:09.609Z,58.78
2023-01-11T03:55:12.460Z,58.61
2023-01-11T04:02:21.529Z,59.33
2023-01-11T04:09:23.211Z,59.11
2023-01-11T04:16:24.900Z,58.92
2023-01-11T04:23:26.485Z,59.13
2023-01-11T04:30:28.091Z,59.62
2023-01-11T04:37:29.791Z,59.39
2023-01-11T04:44:31.655Z,59.43
2023-01-11T04:51:33.466Z,59.71
2023-01-11T04:58:38.015Z,59.65
2023-01-11T05:05:39.892Z,59.92
2023-01-11T05:12:41.594Z,60.24
2023-01-11T05:19:43.327Z,59.72
2023-01-11T05:26:45.616Z,60.45
2023-01-11T05:33:47.267Z,60.43
2023-01-11T05:41:00.730Z,61.30
2023-01-11T05:48:02.426Z,61.10
2023-01-11T05:55:04.872Z,60.94
2023-01-11T06:02:06.666Z,60.57
2023-01-11T06:09:08.441Z,61.55
2023-01-11T06:16:14.650Z,62.59
2023-01-11T06:23:16.580Z,62.95
2023-01-11T06:30:18.569Z,63.83
2023-01-11T06:37:20.211Z,64.17
2023-01-11T06:44:21.811Z,63.34
2023-01-11T06:51:23.411Z,63.50
2023-01-11T06:58:25.439Z,62.51
2023-01-11T07:05:27.419Z,63.08
2023-01-11T07:12:29.163Z,62.74
2023-01-11T07:19:30.892Z,62.80
2023-01-11T07:26:33.143Z,63.47
2023-01-11T07:33:34.868Z,63.63
2023-01-11T07:40:37.062Z,63.85
2023-01-11T07:47:38.707Z,63.63
2023-01-11T07:54:40.503Z,63.76
2023-01-11T08:01:42.126Z,63.69
2023-01-11T08:08:44.519Z,62.78
2023-01-11T08:15:46.212Z,64.28
2023-01-11T08:22:48.470Z,63.58
2023-01-11T08:29:50.131Z,64.60
2023-01-11T08:36:51.844Z,64.26
2023-01-11T08:43:53.625Z,65.00
2023-01-11T08:50:55.246Z,65.44
2023-01-11T08:57:57.330Z,66.10
2023-01-11T09:04:59.092Z,65.71
2023-01-11T09:12:05.499Z,66.06
2023-01-11T09:19:07.533Z,65.72
2023-01-11T09:26:09.180Z,65.03
2023-01-11T09:33:10.797Z,65.61
2023-01-11T09:40:20.730Z,65.27
2023-01-11T09:47:40.781Z,66.76
2023-01-11T09:54:43.209Z,69.64
2023-01-11T10:01:46.193Z,73.23
2023-01-11T10:18:42.818Z,76.80
2023-01-11T10:24:30.691Z,79.19
2023-01-11T10:31:54.894Z,75.44
2023-01-11T10:39:24.812Z,78.71
2023-01-11T10:46:26.538Z,80.89
2023-01-11T10:54:09.901Z,82.53
2023-01-11T11:01:38.441Z,81.77
2023-01-11T11:08:46.650Z,81.17
2023-01-11T11:16:14.088Z,83.74
2023-01-11T11:23:17.371Z,84.82
2023-01-11T11:30:28.525Z,84.47
2023-01-11T11:37:34.589Z,85.43
2023-01-11T11:44:36.181Z,86.37
2023-01-11T11:51:37.769Z,86.97
2023-01-11T11:58:39.749Z,88.06
2023-01-11T12:06:01.155Z,86.60
2023-01-11T12:13:03.415Z,86.56
2023-01-11T12:20:23.720Z,87.77
2023-01-11T12:27:39.054Z,87.30
2023-01-11T12:35:06.607Z,88.94
2023-01-11T12:42:42.255Z,88.39
2023-01-11T12:49:55.687Z,89.37
2023-01-11T12:57:12.713Z,87.73
2023-01-11T13:04:27.106Z,88.64
2023-01-11T13:12:17.170Z,88.63
2023-01-11T13:19:26.627Z,88.63
2023-01-11T13:26:34.461Z,89.99
2023-01-11T13:33:36.162Z,89.13
2023-01-11T13:40:52.810Z,88.86
2023-01-11T13:47:56.889Z,91.82
2023-01-11T13:55:20.803Z,92.41
2023-01-11T14:02:38.288Z,93.49
2023-01-11T14:09:56.800Z,92.75
2023-01-11T14:17:25.510Z,94.53
2023-01-11T14:24:27.290Z,95.91
2023-01-11T14:31:53.199Z,93.80
2023-01-11T14:38:54.687Z,95.85
2023-01-11T14:45:56.238Z,95.40
2023-01-11T14:52:59.112Z,93.53
2023-01-11T15:00:01.773Z,91.14
2023-01-11T15:07:30.937Z,93.32
2023-01-11T15:14:33.788Z,91.57
2023-01-11T15:21:46.521Z,94.33
2023-01-11T15:28:49.433Z,93.24
2023-01-11T15:35:57.441Z,94.06
2023-01-11T15:43:06.661Z,93.83
2023-01-11T15:50:39.295Z,95.44
2023-01-11T15:57:59.359Z,95.01
2023-01-11T16:05:11.620Z,94.59
2023-01-11T16:12:46.096Z,95.29
2023-01-11T16:19:49.841Z,94.38
2023-01-11T16:27:23.944Z,93.04
2023-01-11T16:34:30.577Z,95.23
2023-01-11T16:41:53.202Z,93.37
2023-01-11T16:49:08.299Z,94.57
2023-01-11T16:56:18.506Z,95.24
2023-01-11T17:03:24.977Z,94.95
2023-01-11T17:10:29.922Z,96.68
2023-01-11T17:17:36.348Z,96.62
2023-01-11T17:24:50.996Z,96.74
2023-01-11T17:31:52.689Z,96.57
2023-01-11T17:38:55.858Z,97.36
2023-01-11T17:45:58.349Z,95.42
2023-01-11T17:53:07.084Z,97.25
2023-01-11T18:00:24.008Z,97.82
2023-01-11T18:07:25.882Z,98.11
2023-01-11T18:14:29.899Z,98.10
2023-01-11T18:21:39.907Z,96.99
2023-01-11T18:28:41.720Z,96.55
2023-01-11T18:35:44.331Z,97.40
2023-01-11T18:42:46.494Z,98.26
2023-01-11T18:49:48.982Z,97.87
2023-01-11T18:56:50.735Z,95.83
2023-01-11T19:03:52.385Z,96.36
2023-01-11T19:10:54.002Z,95.48
2023-01-11T19:17:55.596Z,97.77
2023-01-11T19:24:57.221Z,94.73
2023-01-11T19:31:58.916Z,93.25
2023-01-11T19:39:00.576Z,96.23
2023-01-11T19:46:03.794Z,96.53
2023-01-11T19:53:05.493Z,94.87
2023-01-11T20:00:07.872Z,92.94
2023-01-11T20:07:13.487Z,91.35
2023-01-11T20:14:18.741Z,90.75
2023-01-11T20:21:21.431Z,90.53
2023-01-11T20:28:23.941Z,91.40
2023-01-11T20:35:25.678Z,90.81
2023-01-11T20:42:27.406Z,91.59
2023-01-11T20:49:29.801Z,91.48
2023-01-11T20:56:33.466Z,89.85
2023-01-11T21:03:35.188Z,89.13
2023-01-11T21:10:37.150Z,89.35
2023-01-11T21:17:38.992Z,86.86
2023-01-11T21:24:41.032Z,87.60
2023-01-11T21:31:42.766Z,86.42
2023-01-11T21:38:44.615Z,86.81
2023-01-11T21:45:54.334Z,87.95
2023-01-11T21:52:56.012Z,88.53
2023-01-11T21:59:57.622Z,84.39
2023-01-11T22:07:00.038Z,85.80
2023-01-11T22:14:02.472Z,85.78
2023-01-11T22:21:15.280Z,85.26
2023-01-11T22:28:17.331Z,83.59
2023-01-11T22:35:19.009Z,81.85
2023-01-11T22:42:20.665Z,85.01
2023-01-11T22:49:22.324Z,84.69
2023-01-11T22:56:25.718Z,83.58
2023-01-11T23:03:27.408Z,84.70
2023-01-11T23:10:28.967Z,86.37
2023-01-11T23:17:30.552Z,88.64
2023-01-11T23:24:32.147Z,87.74
2023-01-11T23:31:33.833Z,84.78
2023-01-11T23:38:35.553Z,85.28
2023-01-11T23:45:37.221Z,85.58
2023-01-11T23:52:38.935Z,86.50
2023-01-11T23:59:41.145Z,86.79
